Osaka International Airport

Airport
ICAO code: 
RJOO
IATA Code: 
ITM
Summary
ICAO Region: 
APAC
Territory: 
Location: 
Itami, Hyogo Prefecture
Serving: 
Itami, Ikeda and Toyonaka
Elevation: 
39 ft
Coordinates: 
Aerial View: 
34° 47' 2.44" N, 135° 26' 23.061" E
Metar
Observation
RJOO 041100Z 31006KT 9999 FEW025 BKN070 08/02 Q1023 RMK 1CU025 6AC070 A3023
Station
Osaka International Airport
Date/Time
2021-12-04 11:00:00
Wind direction
310°
Wind speed
06 kts
Lowest cloud amount
few clouds
Temperature
8°C
Dew point
2°C
Humidity
65%
QNH
1023 hPa
Weather condition
n/a

Osaka International Airport is the primary domestic airport for the Kansai region of Japan, including the major cities of Osaka, Kyoto, and Kobe.

Climatology

Humid subtropical climate (Köppen climate classification Cfa).

Runways

Designator Length Width Surface Rops
14L/32R 1828 46 ASP Yes/Yes
14R/32L 2999 61 CON Yes/Yes
Airport map: 
Aerial View: 

SKYbrary Partners:

Safety knowledge contributed by: